sensor_id;sensor_type;location;lat;lon;timestamp;pressure;altitude;pressure_sealevel;temperature;humidity
29907;BME280;16776;50.958;10.994;2023-04-30T00:00:33;98951.63;;;8.49;99.51
29907;BME280;16776;50.958;10.994;2023-04-30T00:03:00;98951.66;;;8.46;99.76
29907;BME280;16776;50.958;10.994;2023-04-30T00:05:28;98955.13;;;8.44;99.73
29907;BME280;16776;50.958;10.994;2023-04-30T00:07:55;98961.13;;;8.41;99.14
29907;BME280;16776;50.958;10.994;2023-04-30T00:10:23;98959.44;;;8.40;99.89
29907;BME280;16776;50.958;10.994;2023-04-30T00:12:49;98957.78;;;8.35;99.75
29907;BME280;16776;50.958;10.994;2023-04-30T00:15:16;98968.06;;;8.33;98.98
29907;BME280;16776;50.958;10.994;2023-04-30T00:17:43;98972.41;;;8.30;99.53
29907;BME280;16776;50.958;10.994;2023-04-30T00:20:10;98963.03;;;8.27;99.80
29907;BME280;16776;50.958;10.994;2023-04-30T00:22:37;98967.34;;;8.23;99.90
29907;BME280;16776;50.958;10.994;2023-04-30T00:25:04;98967.38;;;8.20;99.46
29907;BME280;16776;50.958;10.994;2023-04-30T00:27:32;98977.66;;;8.19;99.33
29907;BME280;16776;50.958;10.994;2023-04-30T00:29:59;98987.13;;;8.14;99.03
29907;BME280;16776;50.958;10.994;2023-04-30T00:32:25;98988.84;;;8.10;98.79
29907;BME280;16776;50.958;10.994;2023-04-30T00:34:52;98989.72;;;8.06;98.62
29907;BME280;16776;50.958;10.994;2023-04-30T00:37:18;98996.63;;;8.01;99.56
29907;BME280;16776;50.958;10.994;2023-04-30T00:39:45;98995.84;;;7.96;98.58
29907;BME280;16776;50.958;10.994;2023-04-30T00:42:11;98994.19;;;7.91;99.14
29907;BME280;16776;50.958;10.994;2023-04-30T00:44:39;98998.47;;;7.87;98.55
29907;BME280;16776;50.958;10.994;2023-04-30T00:47:06;99005.41;;;7.79;99.08
29907;BME280;16776;50.958;10.994;2023-04-30T00:49:32;99010.59;;;7.73;98.40
29907;BME280;16776;50.958;10.994;2023-04-30T00:51:59;99015.78;;;7.67;98.81
29907;BME280;16776;50.958;10.994;2023-04-30T00:54:26;99008.16;;;7.59;98.41
29907;BME280;16776;50.958;10.994;2023-04-30T00:56:52;99009.06;;;7.54;99.45
29907;BME280;16776;50.958;10.994;2023-04-30T00:59:20;99009.13;;;7.48;99.17
29907;BME280;16776;50.958;10.994;2023-04-30T01:01:48;99014.25;;;7.44;98.86
29907;BME280;16776;50.958;10.994;2023-04-30T01:04:15;99016.91;;;7.34;98.24
29907;BME280;16776;50.958;10.994;2023-04-30T01:06:42;99019.53;;;7.26;99.65
29907;BME280;16776;50.958;10.994;2023-04-30T01:09:08;99022.97;;;7.22;99.53
29907;BME280;16776;50.958;10.994;2023-04-30T01:11:48;99017.84;;;7.22;99.90
29907;BME280;16776;50.958;10.994;2023-04-30T01:14:24;99025.56;;;7.16;98.64
29907;BME280;16776;50.958;10.994;2023-04-30T01:17:01;99024.72;;;7.16;98.95
29907;BME280;16776;50.958;10.994;2023-04-30T01:19:44;99025.56;;;7.16;98.85
29907;BME280;16776;50.958;10.994;2023-04-30T01:22:29;99023.03;;;7.13;99.50
29907;BME280;16776;50.958;10.994;2023-04-30T01:25:06;99029.03;;;7.09;99.47
29907;BME280;16776;50.958;10.994;2023-04-30T01:30:30;99032.47;;;7.05;99.54
29907;BME280;16776;50.958;10.994;2023-04-30T01:32:57;99030.75;;;7.04;98.99
29907;BME280;16776;50.958;10.994;2023-04-30T01:35:36;99036.69;;;7.11;99.51
29907;BME280;16776;50.958;10.994;2023-04-30T01:38:11;99040.13;;;7.07;100.00
29907;BME280;16776;50.958;10.994;2023-04-30T01:40:43;99029.91;;;7.05;99.93
29907;BME280;16776;50.958;10.994;2023-04-30T01:43:19;99036.72;;;7.06;99.01
29907;BME280;16776;50.958;10.994;2023-04-30T01:46:03;99035.88;;;7.05;99.89
29907;BME280;16776;50.958;10.994;2023-04-30T01:48:38;99039.31;;;6.98;99.75
29907;BME280;16776;50.958;10.994;2023-04-30T01:51:10;99046.19;;;6.95;99.63
29907;BME280;16776;50.958;10.994;2023-04-30T01:53:40;99043.66;;;6.90;99.83
29907;BME280;16776;50.958;10.994;2023-04-30T01:56:10;99050.50;;;6.90;99.26
29907;BME280;16776;50.958;10.994;2023-04-30T01:58:39;99041.13;;;6.80;99.34
29907;BME280;16776;50.958;10.994;2023-04-30T02:01:06;99054.78;;;6.83;99.54
29907;BME280;16776;50.958;10.994;2023-04-30T02:03:32;99056.50;;;6.80;98.81
29907;BME280;16776;50.958;10.994;2023-04-30T02:05:59;99061.66;;;6.75;99.41
29907;BME280;16776;50.958;10.994;2023-04-30T02:08:25;99068.44;;;6.72;99.59
29907;BME280;16776;50.958;10.994;2023-04-30T02:10:52;99068.47;;;6.69;98.75
29907;BME280;16776;50.958;10.994;2023-04-30T02:13:18;99076.13;;;6.65;99.16
29907;BME280;16776;50.958;10.994;2023-04-30T02:15:46;99076.13;;;6.65;99.88
29907;BME280;16776;50.958;10.994;2023-04-30T02:18:13;99073.59;;;6.61;99.16
29907;BME280;16776;50.958;10.994;2023-04-30T02:20:39;99079.59;;;6.58;99.84
29907;BME280;16776;50.958;10.994;2023-04-30T02:23:06;99082.16;;;6.57;99.58
29907;BME280;16776;50.958;10.994;2023-04-30T02:25:34;99085.56;;;6.56;99.54
29907;BME280;16776;50.958;10.994;2023-04-30T02:28:02;99090.69;;;6.54;98.90
29907;BME280;16776;50.958;10.994;2023-04-30T02:30:29;99091.56;;;6.52;99.66
29907;BME280;16776;50.958;10.994;2023-04-30T02:32:57;99097.50;;;6.52;99.91
29907;BME280;16776;50.958;10.994;2023-04-30T02:35:24;99100.09;;;6.49;99.82
29907;BME280;16776;50.958;10.994;2023-04-30T02:37:50;99099.22;;;6.49;99.53
29907;BME280;16776;50.958;10.994;2023-04-30T02:40:17;99103.50;;;6.48;100.00
29907;BME280;16776;50.958;10.994;2023-04-30T02:42:47;99090.72;;;6.45;99.20
29907;BME280;16776;50.958;10.994;2023-04-30T02:45:13;99096.69;;;6.44;99.49
29907;BME280;16776;50.958;10.994;2023-04-30T02:47:40;99096.69;;;6.43;98.99
29907;BME280;16776;50.958;10.994;2023-04-30T02:50:09;99095.84;;;6.42;98.55
29907;BME280;16776;50.958;10.994;2023-04-30T02:52:36;99100.13;;;6.37;99.36
29907;BME280;16776;50.958;10.994;2023-04-30T02:55:02;99100.97;;;6.33;99.46
29907;BME280;16776;50.958;10.994;2023-04-30T02:57:29;99103.53;;;6.29;98.88
29907;BME280;16776;50.958;10.994;2023-04-30T02:59:56;99096.75;;;6.24;98.94
29907;BME280;16776;50.958;10.994;2023-04-30T03:02:22;99107.00;;;6.20;98.77
29907;BME280;16776;50.958;10.994;2023-04-30T03:04:49;99105.25;;;6.16;98.92
29907;BME280;16776;50.958;10.994;2023-04-30T03:07:17;99104.44;;;6.12;98.80
29907;BME280;16776;50.958;10.994;2023-04-30T03:09:44;99100.19;;;6.07;98.58
29907;BME280;16776;50.958;10.994;2023-04-30T03:12:10;99103.56;;;6.03;98.81
29907;BME280;16776;50.958;10.994;2023-04-30T03:14:38;99095.94;;;6.00;98.42
29907;BME280;16776;50.958;10.994;2023-04-30T03:17:05;99093.34;;;5.97;98.74
29907;BME280;16776;50.958;10.994;2023-04-30T03:19:32;99095.06;;;5.95;99.03
29907;BME280;16776;50.958;10.994;2023-04-30T03:21:58;99097.63;;;5.93;98.68
29907;BME280;16776;50.958;10.994;2023-04-30T03:24:26;99102.75;;;5.93;98.77
29907;BME280;16776;50.958;10.994;2023-04-30T03:26:53;99106.16;;;5.91;99.45
29907;BME280;16776;50.958;10.994;2023-04-30T03:29:22;99106.13;;;5.89;99.20
29907;BME280;16776;50.958;10.994;2023-04-30T03:31:49;99103.59;;;5.88;99.15
29907;BME280;16776;50.958;10.994;2023-04-30T03:34:16;99109.56;;;5.85;99.25
29907;BME280;16776;50.958;10.994;2023-04-30T03:36:43;99108.69;;;5.83;98.75
29907;BME280;16776;50.958;10.994;2023-04-30T03:39:09;99118.09;;;5.81;98.58
29907;BME280;16776;50.958;10.994;2023-04-30T03:41:37;99114.69;;;5.80;98.70
29907;BME280;16776;50.958;10.994;2023-04-30T03:44:04;99117.22;;;5.74;98.76
29907;BME280;16776;50.958;10.994;2023-04-30T03:46:31;99117.22;;;5.71;98.66
29907;BME280;16776;50.958;10.994;2023-04-30T03:48:57;99116.38;;;5.68;98.49
29907;BME280;16776;50.958;10.994;2023-04-30T03:51:24;99121.47;;;5.65;98.73
29907;BME280;16776;50.958;10.994;2023-04-30T03:53:52;99119.78;;;5.61;98.83
29907;BME280;16776;50.958;10.994;2023-04-30T03:56:22;99124.03;;;5.56;98.32
29907;BME280;16776;50.958;10.994;2023-04-30T03:58:51;99124.88;;;5.53;98.20
29907;BME280;16776;50.958;10.994;2023-04-30T04:01:17;99121.44;;;5.47;98.69
29907;BME280;16776;50.958;10.994;2023-04-30T04:03:44;99128.28;;;5.43;98.37
29907;BME280;16776;50.958;10.994;2023-04-30T04:06:11;99126.53;;;5.39;98.42
29907;BME280;16776;50.958;10.994;2023-04-30T04:08:37;99129.09;;;5.34;98.68
29907;BME280;16776;50.958;10.994;2023-04-30T04:11:07;99121.41;;;5.31;98.85
29907;BME280;16776;50.958;10.994;2023-04-30T04:13:33;99129.09;;;5.30;99.33
29907;BME280;16776;50.958;10.994;2023-04-30T04:16:01;99126.53;;;5.28;98.89
29907;BME280;16776;50.958;10.994;2023-04-30T04:18:31;99128.22;;;5.32;99.75
29907;BME280;16776;50.958;10.994;2023-04-30T04:20:58;99135.91;;;5.29;99.57
29907;BME280;16776;50.958;10.994;2023-04-30T04:23:25;99138.44;;;5.29;99.24
29907;BME280;16776;50.958;10.994;2023-04-30T04:25:52;99142.69;;;5.32;99.63
29907;BME280;16776;50.958;10.994;2023-04-30T04:28:18;99145.25;;;5.32;99.32
29907;BME280;16776;50.958;10.994;2023-04-30T04:30:45;99144.41;;;5.33;99.41
29907;BME280;16776;50.958;10.994;2023-04-30T04:33:13;99147.84;;;5.36;99.53
29907;BME280;16776;50.958;10.994;2023-04-30T04:35:40;99147.84;;;5.36;99.76
29907;BME280;16776;50.958;10.994;2023-04-30T04:38:07;99157.19;;;5.39;100.00
29907;BME280;16776;50.958;10.994;2023-04-30T04:40:36;99154.66;;;5.42;100.00
29907;BME280;16776;50.958;10.994;2023-04-30T04:43:02;99158.06;;;5.45;99.52
29907;BME280;16776;50.958;10.994;2023-04-30T04:45:29;99160.63;;;5.47;99.54
29907;BME280;16776;50.958;10.994;2023-04-30T04:47:56;99159.78;;;5.48;99.52
29907;BME280;16776;50.958;10.994;2023-04-30T04:50:27;99164.88;;;5.53;99.80
29907;BME280;16776;50.958;10.994;2023-04-30T04:52:53;99166.59;;;5.54;99.72
29907;BME280;16776;50.958;10.994;2023-04-30T04:55:20;99167.44;;;5.57;99.74
29907;BME280;16776;50.958;10.994;2023-04-30T04:57:47;99164.06;;;5.61;99.73
29907;BME280;16776;50.958;10.994;2023-04-30T05:00:14;99160.66;;;5.65;100.00
29907;BME280;16776;50.958;10.994;2023-04-30T05:02:42;99170.00;;;5.69;100.00
29907;BME280;16776;50.958;10.994;2023-04-30T05:05:08;99166.63;;;5.73;100.00
29907;BME280;16776;50.958;10.994;2023-04-30T05:07:37;99176.00;;;5.80;100.00
29907;BME280;16776;50.958;10.994;2023-04-30T05:10:04;99177.72;;;5.84;100.00
29907;BME280;16776;50.958;10.994;2023-04-30T05:12:31;99177.72;;;5.89;100.00
29907;BME280;16776;50.958;10.994;2023-04-30T05:14:58;99172.63;;;5.92;100.00
29907;BME280;16776;50.958;10.994;2023-04-30T05:17:24;99170.03;;;5.95;100.00
29907;BME280;16776;50.958;10.994;2023-04-30T05:19:51;99172.63;;;6.00;100.00
29907;BME280;16776;50.958;10.994;2023-04-30T05:22:18;99179.44;;;6.04;100.00
29907;BME280;16776;50.958;10.994;2023-04-30T05:24:50;99176.88;;;6.10;100.00
29907;BME280;16776;50.958;10.994;2023-04-30T05:27:17;99176.03;;;6.12;100.00
29907;BME280;16776;50.958;10.994;2023-04-30T05:29:43;99183.69;;;6.17;100.00
29907;BME280;16776;50.958;10.994;2023-04-30T05:32:10;99181.13;;;6.21;100.00
29907;BME280;16776;50.958;10.994;2023-04-30T05:34:36;99182.00;;;6.25;100.00
29907;BME280;16776;50.958;10.994;2023-04-30T05:37:03;99185.38;;;6.33;100.00
29907;BME280;16776;50.958;10.994;2023-04-30T05:39:30;99190.50;;;6.39;100.00
29907;BME280;16776;50.958;10.994;2023-04-30T05:41:57;99184.50;;;6.46;100.00
29907;BME280;16776;50.958;10.994;2023-04-30T05:44:24;99181.97;;;6.51;100.00
29907;BME280;16776;50.958;10.994;2023-04-30T05:46:50;99189.63;;;6.57;100.00
29907;BME280;16776;50.958;10.994;2023-04-30T05:49:17;99190.47;;;6.62;100.00
29907;BME280;16776;50.958;10.994;2023-04-30T05:51:46;99190.47;;;6.70;100.00
29907;BME280;16776;50.958;10.994;2023-04-30T05:54:12;99192.16;;;6.71;100.00
29907;BME280;16776;50.958;10.994;2023-04-30T05:56:39;99193.84;;;6.73;100.00
29907;BME280;16776;50.958;10.994;2023-04-30T05:59:07;99197.28;;;6.78;100.00
29907;BME280;16776;50.958;10.994;2023-04-30T06:01:33;99196.44;;;6.79;100.00
29907;BME280;16776;50.958;10.994;2023-04-30T06:04:00;99193.88;;;6.81;100.00
29907;BME280;16776;50.958;10.994;2023-04-30T06:06:28;99190.47;;;6.83;100.00
29907;BME280;16776;50.958;10.994;2023-04-30T06:08:56;99185.31;;;6.85;100.00
29907;BME280;16776;50.958;10.994;2023-04-30T06:11:22;99187.88;;;6.97;100.00
29907;BME280;16776;50.958;10.994;2023-04-30T06:13:49;99187.78;;;7.21;100.00
29907;BME280;16776;50.958;10.994;2023-04-30T06:16:18;99185.06;;;7.52;100.00
29907;BME280;16776;50.958;10.994;2023-04-30T06:18:44;99188.31;;;7.79;100.00
29907;BME280;16776;50.958;10.994;2023-04-30T06:21:11;99187.28;;;8.00;100.00
29907;BME280;16776;50.958;10.994;2023-04-30T06:23:38;99186.34;;;8.13;100.00
29907;BME280;16776;50.958;10.994;2023-04-30T06:26:04;99183.72;;;8.22;100.00
29907;BME280;16776;50.958;10.994;2023-04-30T06:28:31;99188.81;;;8.27;100.00
29907;BME280;16776;50.958;10.994;2023-04-30T06:30:58;99195.66;;;8.30;100.00
29907;BME280;16776;50.958;10.994;2023-04-30T06:33:28;99188.78;;;8.32;100.00
29907;BME280;16776;50.958;10.994;2023-04-30T06:35:55;99189.66;;;8.28;100.00
29907;BME280;16776;50.958;10.994;2023-04-30T06:38:23;99183.72;;;8.22;100.00
29907;BME280;16776;50.958;10.994;2023-04-30T06:40:50;99185.44;;;8.22;100.00
29907;BME280;16776;50.958;10.994;2023-04-30T06:43:17;99188.03;;;8.20;100.00
29907;BME280;16776;50.958;10.994;2023-04-30T06:45:44;99197.44;;;8.20;100.00
29907;BME280;16776;50.958;10.994;2023-04-30T06:48:10;99193.16;;;8.19;100.00
29907;BME280;16776;50.958;10.994;2023-04-30T06:50:46;99190.53;;;8.25;100.00
29907;BME280;16776;50.958;10.994;2023-04-30T06:53:12;99199.19;;;8.18;100.00
29907;BME280;16776;50.958;10.994;2023-04-30T06:55:40;99188.91;;;8.18;100.00
29907;BME280;16776;50.958;10.994;2023-04-30T06:58:07;99198.31;;;8.17;100.00
29907;BME280;16776;50.958;10.994;2023-04-30T07:00:34;99195.72;;;8.19;100.00
29907;BME280;16776;50.958;10.994;2023-04-30T07:03:00;99199.13;;;8.19;100.00
29907;BME280;16776;50.958;10.994;2023-04-30T07:05:28;99193.16;;;8.20;100.00
29907;BME280;16776;50.958;10.994;2023-04-30T07:07:57;99191.38;;;8.25;100.00
29907;BME280;16776;50.958;10.994;2023-04-30T07:10:23;99201.66;;;8.27;100.00
29907;BME280;16776;50.958;10.994;2023-04-30T07:12:50;99205.03;;;8.32;100.00
29907;BME280;16776;50.958;10.994;2023-04-30T07:15:20;99202.38;;;8.41;100.00
29907;BME280;16776;50.958;10.994;2023-04-30T07:17:46;99203.25;;;8.42;100.00
29907;BME280;16776;50.958;10.994;2023-04-30T07:20:13;99197.19;;;8.46;100.00
29907;BME280;16776;50.958;10.994;2023-04-30T07:22:40;99201.47;;;8.50;100.00
29907;BME280;16776;50.958;10.994;2023-04-30T07:25:10;99203.94;;;8.57;100.00
29907;BME280;16776;50.958;10.994;2023-04-30T07:27:36;99209.03;;;8.62;100.00
29907;BME280;16776;50.958;10.994;2023-04-30T07:30:08;99206.34;;;8.74;100.00
29907;BME280;16776;50.958;10.994;2023-04-30T07:32:35;99208.00;;;8.78;100.00
29907;BME280;16776;50.958;10.994;2023-04-30T07:35:03;99215.63;;;8.87;100.00
29907;BME280;16776;50.958;10.994;2023-04-30T07:37:30;99220.63;;;8.99;100.00
29907;BME280;16776;50.958;10.994;2023-04-30T07:39:57;99214.53;;;9.10;100.00
29907;BME280;16776;50.958;10.994;2023-04-30T07:42:25;99211.84;;;9.20;100.00
29907;BME280;16776;50.958;10.994;2023-04-30T07:44:52;99213.50;;;9.26;100.00
29907;BME280;16776;50.958;10.994;2023-04-30T07:47:18;99213.41;;;9.33;100.00
29907;BME280;16776;50.958;10.994;2023-04-30T07:49:45;99215.00;;;9.45;100.00
29907;BME280;16776;50.958;10.994;2023-04-30T07:52:12;99219.09;;;9.58;100.00
29907;BME280;16776;50.958;10.994;2023-04-30T07:54:39;99206.88;;;9.72;100.00
29907;BME280;16776;50.958;10.994;2023-04-30T07:57:09;99203.25;;;9.87;100.00
29907;BME280;16776;50.958;10.994;2023-04-30T07:59:38;99206.38;;;10.09;100.00
29907;BME280;16776;50.958;10.994;2023-04-30T08:02:05;99203.50;;;10.27;100.00
29907;BME280;16776;50.958;10.994;2023-04-30T08:04:32;99201.44;;;10.47;100.00
29907;BME280;16776;50.958;10.994;2023-04-30T08:06:58;99208.81;;;10.69;100.00
29907;BME280;16776;50.958;10.994;2023-04-30T08:09:26;99204.13;;;10.90;100.00
29907;BME280;16776;50.958;10.994;2023-04-30T08:11:52;99202.00;;;11.11;100.00
29907;BME280;16776;50.958;10.994;2023-04-30T08:14:19;99210.13;;;11.34;100.00
29907;BME280;16776;50.958;10.994;2023-04-30T08:16:47;99212.22;;;11.57;100.00
29907;BME280;16776;50.958;10.994;2023-04-30T08:19:13;99211.06;;;11.71;100.00
29907;BME280;16776;50.958;10.994;2023-04-30T08:21:40;99211.59;;;11.87;99.05
29907;BME280;16776;50.958;10.994;2023-04-30T08:24:07;99210.41;;;12.00;98.79
29907;BME280;16776;50.958;10.994;2023-04-30T08:26:33;99217.94;;;12.09;98.35
29907;BME280;16776;50.958;10.994;2023-04-30T08:29:02;99211.88;;;12.12;97.47
29907;BME280;16776;50.958;10.994;2023-04-30T08:31:29;99212.78;;;12.09;96.86
29907;BME280;16776;50.958;10.994;2023-04-30T08:33:57;99211.16;;;12.05;97.40
29907;BME280;16776;50.958;10.994;2023-04-30T08:36:23;99209.53;;;12.01;97.82
29907;BME280;16776;50.958;10.994;2023-04-30T08:38:51;99216.31;;;12.05;97.97
29907;BME280;16776;50.958;10.994;2023-04-30T08:41:19;99212.66;;;12.15;98.07
29907;BME280;16776;50.958;10.994;2023-04-30T08:43:51;99210.50;;;12.33;98.49
29907;BME280;16776;50.958;10.994;2023-04-30T08:46:19;99206.72;;;12.46;99.29
29907;BME280;16776;50.958;10.994;2023-04-30T08:48:46;99207.03;;;12.68;99.37
29907;BME280;16776;50.958;10.994;2023-04-30T08:51:14;99209.00;;;12.92;99.07
29907;BME280;16776;50.958;10.994;2023-04-30T08:53:41;99198.06;;;13.13;99.07
29907;BME280;16776;50.958;10.994;2023-04-30T08:56:09;99192.25;;;13.36;98.34
29907;BME280;16776;50.958;10.994;2023-04-30T08:58:35;99186.53;;;13.54;97.78
29907;BME280;16776;50.958;10.994;2023-04-30T09:01:03;99196.44;;;13.69;97.43
29907;BME280;16776;50.958;10.994;2023-04-30T09:03:32;99190.13;;;13.78;96.23
29907;BME280;16776;50.958;10.994;2023-04-30T09:05:59;99198.56;;;13.85;96.28
29907;BME280;16776;50.958;10.994;2023-04-30T09:08:43;99202.38;;;14.01;96.12
29907;BME280;16776;50.958;10.994;2023-04-30T09:11:21;99196.19;;;14.05;96.12
29907;BME280;16776;50.958;10.994;2023-04-30T09:13:48;99197.94;;;14.04;96.66
29907;BME280;16776;50.958;10.994;2023-04-30T09:16:15;99199.41;;;14.13;96.31
29907;BME280;16776;50.958;10.994;2023-04-30T09:18:42;99202.53;;;14.22;96.34
29907;BME280;16776;50.958;10.994;2023-04-30T09:21:08;99190.91;;;14.34;96.35
29907;BME280;16776;50.958;10.994;2023-04-30T09:23:35;99199.97;;;14.49;96.31
29907;BME280;16776;50.958;10.994;2023-04-30T09:26:03;99197.72;;;14.65;96.54
29907;BME280;16776;50.958;10.994;2023-04-30T09:28:29;99200.66;;;14.79;96.02
29907;BME280;16776;50.958;10.994;2023-04-30T09:30:56;99189.75;;;14.94;96.10
29907;BME280;16776;50.958;10.994;2023-04-30T09:33:23;99190.09;;;15.08;95.83
29907;BME280;16776;50.958;10.994;2023-04-30T09:35:50;99193.06;;;15.22;96.00
29907;BME280;16776;50.958;10.994;2023-04-30T09:38:26;99188.78;;;15.45;95.67
29907;BME280;16776;50.958;10.994;2023-04-30T09:40:53;99185.03;;;15.52;95.67
29907;BME280;16776;50.958;10.994;2023-04-30T09:43:22;99185.22;;;15.69;95.41
29907;BME280;16776;50.958;10.994;2023-04-30T09:45:49;99185.69;;;15.80;94.25
29907;BME280;16776;50.958;10.994;2023-04-30T09:48:21;99180.91;;;15.91;94.22
29907;BME280;16776;50.958;10.994;2023-04-30T09:50:48;99186.06;;;15.93;93.01
29907;BME280;16776;50.958;10.994;2023-04-30T09:53:15;99180.00;;;15.92;92.77
29907;BME280;16776;50.958;10.994;2023-04-30T09:55:44;99181.56;;;15.96;93.37
29907;BME280;16776;50.958;10.994;2023-04-30T09:58:11;99168.53;;;15.98;93.36
29907;BME280;16776;50.958;10.994;2023-04-30T10:00:41;99174.19;;;16.07;93.50
29907;BME280;16776;50.958;10.994;2023-04-30T10:03:09;99175.69;;;16.13;93.12
29907;BME280;16776;50.958;10.994;2023-04-30T10:05:38;99175.41;;;16.20;92.77
29907;BME280;16776;50.958;10.994;2023-04-30T10:08:12;99168.16;;;16.29;91.52
29907;BME280;16776;50.958;10.994;2023-04-30T10:10:42;99170.81;;;16.27;92.01
29907;BME280;16776;50.958;10.994;2023-04-30T10:13:13;99175.09;;;16.28;92.62
29907;BME280;16776;50.958;10.994;2023-04-30T10:15:47;99170.59;;;16.32;92.26
29907;BME280;16776;50.958;10.994;2023-04-30T10:18:18;99170.44;;;16.36;93.40
29907;BME280;16776;50.958;10.994;2023-04-30T10:20:47;99169.31;;;16.42;92.78
29907;BME280;16776;50.958;10.994;2023-04-30T10:23:17;99167.25;;;16.50;92.97
29907;BME280;16776;50.958;10.994;2023-04-30T10:25:43;99152.94;;;16.60;91.75
29907;BME280;16776;50.958;10.994;2023-04-30T10:28:11;99158.72;;;16.67;91.78
29907;BME280;16776;50.958;10.994;2023-04-30T10:30:38;99148.22;;;16.70;92.00
29907;BME280;16776;50.958;10.994;2023-04-30T10:33:18;99144.22;;;16.81;91.94
29907;BME280;16776;50.958;10.994;2023-04-30T10:35:59;99148.50;;;16.82;92.12
29907;BME280;16776;50.958;10.994;2023-04-30T10:38:29;99139.50;;;16.89;92.45
29907;BME280;16776;50.958;10.994;2023-04-30T10:40:57;99138.34;;;16.96;91.33
29907;BME280;16776;50.958;10.994;2023-04-30T10:43:24;99135.34;;;17.06;91.36
29907;BME280;16776;50.958;10.994;2023-04-30T10:45:51;99125.72;;;17.08;91.45
29907;BME280;16776;50.958;10.994;2023-04-30T10:48:21;99131.84;;;17.25;91.16
29907;BME280;16776;50.958;10.994;2023-04-30T10:50:54;99125.63;;;17.28;90.95
29907;BME280;16776;50.958;10.994;2023-04-30T10:53:21;99125.50;;;17.31;90.38
29907;BME280;16776;50.958;10.994;2023-04-30T10:55:52;99111.81;;;17.27;90.75
29907;BME280;16776;50.958;10.994;2023-04-30T10:58:23;99122.63;;;17.37;90.42
29907;BME280;16776;50.958;10.994;2023-04-30T11:00:58;99117.41;;;17.37;90.46
29907;BME280;16776;50.958;10.994;2023-04-30T11:03:28;99123.03;;;17.47;90.94
29907;BME280;16776;50.958;10.994;2023-04-30T11:05:55;99118.66;;;17.47;90.28
29907;BME280;16776;50.958;10.994;2023-04-30T11:08:31;99117.16;;;17.60;90.83
29907;BME280;16776;50.958;10.994;2023-04-30T11:10:59;99115.63;;;17.56;90.10
29907;BME280;16776;50.958;10.994;2023-04-30T11:13:26;99119.84;;;17.59;89.89
29907;BME280;16776;50.958;10.994;2023-04-30T11:15:53;99117.16;;;17.60;89.83
29907;BME280;16776;50.958;10.994;2023-04-30T11:18:19;99111.94;;;17.60;89.85
29907;BME280;16776;50.958;10.994;2023-04-30T11:20:49;99106.44;;;17.66;89.44
29907;BME280;16776;50.958;10.994;2023-04-30T11:23:21;99114.19;;;17.68;88.85
29907;BME280;16776;50.958;10.994;2023-04-30T11:25:48;99105.88;;;17.60;88.86
29907;BME280;16776;50.958;10.994;2023-04-30T11:28:16;99099.88;;;17.59;89.51
29907;BME280;16776;50.958;10.994;2023-04-30T11:30:51;99098.63;;;17.66;89.16
29907;BME280;16776;50.958;10.994;2023-04-30T11:33:18;99102.47;;;17.59;88.98
29907;BME280;16776;50.958;10.994;2023-04-30T11:35:45;99098.06;;;17.60;88.57
29907;BME280;16776;50.958;10.994;2023-04-30T11:38:16;99096.19;;;17.63;88.70
29907;BME280;16776;50.958;10.994;2023-04-30T11:40:43;99100.69;;;17.60;88.74
29907;BME280;16776;50.958;10.994;2023-04-30T11:43:20;99095.88;;;17.69;87.73
29907;BME280;16776;50.958;10.994;2023-04-30T11:46:04;99090.69;;;17.69;88.52
29907;BME280;16776;50.958;10.994;2023-04-30T11:48:33;99088.44;;;17.62;88.52
29907;BME280;16776;50.958;10.994;2023-04-30T11:51:02;99083.94;;;17.65;87.96
29907;BME280;16776;50.958;10.994;2023-04-30T11:53:30;99090.06;;;17.64;88.46
29907;BME280;16776;50.958;10.994;2023-04-30T11:56:01;99084.50;;;17.72;88.56
29907;BME280;16776;50.958;10.994;2023-04-30T11:58:32;99083.00;;;17.66;86.45
29907;BME280;16776;50.958;10.994;2023-04-30T12:00:59;99076.69;;;17.53;86.62
29907;BME280;16776;50.958;10.994;2023-04-30T12:03:26;99081.56;;;17.42;85.92
29907;BME280;16776;50.958;10.994;2023-04-30T12:05:53;99082.16;;;17.30;85.54
29907;BME280;16776;50.958;10.994;2023-04-30T12:08:20;99088.16;;;17.13;86.29
29907;BME280;16776;50.958;10.994;2023-04-30T12:10:48;99087.72;;;17.04;86.64
29907;BME280;16776;50.958;10.994;2023-04-30T12:13:14;99090.72;;;16.94;86.82
29907;BME280;16776;50.958;10.994;2023-04-30T12:15:41;99093.47;;;16.91;86.91
29907;BME280;16776;50.958;10.994;2023-04-30T12:18:11;99088.97;;;16.95;86.97
29907;BME280;16776;50.958;10.994;2023-04-30T12:20:40;99088.19;;;16.93;87.22
29907;BME280;16776;50.958;10.994;2023-04-30T12:23:07;99090.66;;;16.96;87.23
29907;BME280;16776;50.958;10.994;2023-04-30T12:25:40;99084.09;;;17.08;86.50
29907;BME280;16776;50.958;10.994;2023-04-30T12:28:09;99082.41;;;17.07;86.89
29907;BME280;16776;50.958;10.994;2023-04-30T12:30:35;99085.00;;;17.07;87.12
29907;BME280;16776;50.958;10.994;2023-04-30T12:33:05;99081.31;;;17.11;86.46
29907;BME280;16776;50.958;10.994;2023-04-30T12:35:35;99081.19;;;17.14;86.55
29907;BME280;16776;50.958;10.994;2023-04-30T12:38:03;99056.16;;;17.11;86.78
29907;BME280;16776;50.958;10.994;2023-04-30T12:40:30;99062.81;;;17.17;87.33
29907;BME280;16776;50.958;10.994;2023-04-30T12:43:01;99066.69;;;17.27;87.12
29907;BME280;16776;50.958;10.994;2023-04-30T12:45:46;99065.41;;;17.35;87.85
29907;BME280;16776;50.958;10.994;2023-04-30T12:48:15;99066.75;;;17.25;86.83
29907;BME280;16776;50.958;10.994;2023-04-30T12:50:46;99057.69;;;17.34;86.21
29907;BME280;16776;50.958;10.994;2023-04-30T12:53:13;99051.84;;;17.29;86.67
29907;BME280;16776;50.958;10.994;2023-04-30T12:55:40;99050.84;;;17.31;86.41
29907;BME280;16776;50.958;10.994;2023-04-30T12:58:07;99045.66;;;17.31;85.69
29907;BME280;16776;50.958;10.994;2023-04-30T13:00:49;99050.50;;;17.39;86.70